Spencertown, NY (12165)

8:18 AM EST on February 09, 2016 (GMT -0500)
Spencertown, NY | | Change Station
CLOSE
Current Station
Personal Weather Station
Location: Chatham, NY
Elevation: 702 ft
Nearby Weather Stations

Elev 702 ft 42.31 °N, 73.54 °W | Updated 9 minutes ago

Overcast
Overcast
22.1 °F
Feels Like 22 °F
N
1.1
Wind Variable Wind from South

Today
High -- | Low -- °F
--% Chance of Precip.
Yesterday
High -- | Low -- °F
Precip. -- in
Pressure 29.68 in
Visibility 10.0 miles
Clouds Mostly Cloudy 6500 ft
Mostly Cloudy 7500 ft
Overcast 10000 ft
Windchill 22 °F
Dew Point 17 °F
Humidity 79%
Rainfall 0.00 in
Snow Depth Not available.
6:59 AM 5:18 PM
New Moon, 1% visible
METAR KPSF 091254Z AUTO 12003KT 10SM BKN065 BKN075 OVC100 M08/M11 A2962 RMK AO2 PRESRR SLP048 T10781106
Pressure 29.68 in
Visibility 10.0 miles
Clouds Mostly Cloudy 6500 ft
Mostly Cloudy 7500 ft
Overcast 10000 ft
Windchill 22 °F
Dew Point 17 °F
Humidity 79%
Rainfall 0.00 in
Snow Depth Not available.
6:59 AM 5:18 PM
New Moon, 1% visible
METAR KPSF 091254Z AUTO 12003KT 10SM BKN065 BKN075 OVC100 M08/M11 A2962 RMK AO2 PRESRR SLP048 T10781106

10-Day Weather Forecast

Almanac

Astronomy

Feb. 09, 2016 Rise Set
Actual Time
Civil Twilight
Nautical Twilight
Astronomical Twilight
Moon
Length of Visible Light
Length of Day
Tomorrow will be .
, % of the Moon is Illuminated

Today's Extremes

State Highs State Lows

Community

WunderPhotos

Upload Photos

1,891,591 photos uploaded!

WunderBlog® & News

Nearby

Air Quality

  Air Quality AQ Index Pollutant
Not available.

Snow Depth

Station Depth Elevation

Earthquake Activity

City Distance Mag. Time & Date
Minimum magnitude displayed is 2.5.

Coastal Water Temperatures

Place Temperature

Stations

Nearby Weather Stations

Station Location Temp. Windchill Dew Point Humidity Wind Precip. Elev Updated Type
                   

Watches & Warnings

There are currently no watches in effect.